Time;durP1;ratioP1;P1;durP2;ratioP2;P2;SDS_P1;SDS_P2;PMS_P1;PMS_P2;Temp;Humidity;BMP_temperature;BMP_pressure;BME280_temperature;BME280_humidity;BME280_pressure;Samples;Min_cycle;Max_cycle;Signal;HPM_P1;HPM_P2
2021/06/05 00:01:28;;;;;;;;;1.00;1.00;;;;;20.20;48.42;98936.16;4893740;28;104128;-92
2021/06/05 00:03:55;;;;;;;;;1.00;1.00;;;;;20.19;48.49;98932.59;4886886;28;102287;-92
2021/06/05 00:06:24;;;;;;;;;1.00;1.00;;;;;20.18;48.80;98925.44;4904050;28;102796;-93
2021/06/05 00:08:51;;;;;;;;;2.00;2.00;;;;;20.19;48.58;98927.09;4907629;28;104634;-92
2021/06/05 00:11:19;;;;;;;;;2.67;2.67;;;;;20.19;48.58;98932.59;4911298;28;102195;-93
2021/06/05 00:13:48;;;;;;;;;1.00;0.00;;;;;20.19;48.35;98932.59;4887214;28;102230;-92
2021/06/05 00:16:18;;;;;;;;;2.00;2.00;;;;;20.18;48.39;98919.94;4873933;28;103271;-91
2021/06/05 00:18:50;;;;;;;;;2.00;1.33;;;;;20.19;48.51;98920.78;4885385;28;104059;-93
2021/06/05 00:21:27;;;;;;;;;1.00;1.00;;;;;20.18;48.56;98922.69;4917728;28;102481;-93
2021/06/05 00:24:00;;;;;;;;;1.67;1.67;;;;;20.17;48.78;98923.78;4908425;28;102723;-93
2021/06/05 00:26:37;;;;;;;;;2.00;2.00;;;;;20.18;48.47;98927.34;4892301;28;102580;-92
2021/06/05 00:29:12;;;;;;;;;2.00;2.00;;;;;20.18;48.67;98919.94;4902938;28;108137;-93
2021/06/05 00:31:48;;;;;;;;;1.67;1.67;;;;;20.17;48.70;98918.31;4915052;28;102450;-92
2021/06/05 00:34:21;;;;;;;;;2.33;1.67;;;;;20.17;48.31;98906.47;4902891;28;102183;-93
2021/06/05 00:36:53;;;;;;;;;2.00;2.00;;;;;20.16;48.86;98902.91;4911714;28;102703;-92
2021/06/05 00:39:26;;;;;;;;;3.00;2.00;;;;;20.18;48.72;98910.88;4907388;28;103102;-93
2021/06/05 00:41:58;;;;;;;;;2.00;2.00;;;;;20.16;48.44;98905.66;4890039;28;103073;-93
2021/06/05 00:44:31;;;;;;;;;2.00;1.33;;;;;20.16;48.60;98911.13;4898598;28;102070;-92
2021/06/05 00:47:15;;;;;;;;;2.00;2.00;;;;;20.14;48.38;98902.31;4879429;28;102754;-92
2021/06/05 00:49:48;;;;;;;;;2.00;1.00;;;;;20.16;48.55;98910.31;4845443;28;107889;-93
2021/06/05 00:52:21;;;;;;;;;2.00;2.00;;;;;20.16;48.47;98910.31;4899892;28;102689;-93
2021/06/05 00:54:51;;;;;;;;;2.00;2.00;;;;;20.16;48.73;98911.13;4862200;28;102529;-93
2021/06/05 00:57:24;;;;;;;;;2.00;2.00;;;;;20.16;48.49;98922.13;4891363;28;102214;-93
2021/06/05 01:00:14;;;;;;;;;2.00;2.00;;;;;20.16;48.56;98922.13;4877279;28;103426;-92
2021/06/05 01:02:47;;;;;;;;;3.00;1.33;;;;;20.16;48.49;98913.88;4887321;28;102939;-91
2021/06/05 01:05:21;;;;;;;;;2.00;2.00;;;;;20.15;48.66;98912.22;4899876;28;102818;-93
2021/06/05 01:08:10;;;;;;;;;3.00;3.00;;;;;20.15;48.41;98917.72;4878192;28;102506;-93
2021/06/05 01:10:43;;;;;;;;;2.67;2.33;;;;;20.16;48.35;98918.53;4848111;28;107906;-91
2021/06/05 01:13:23;;;;;;;;;2.00;2.00;;;;;20.14;48.44;98921.53;4847903;28;103885;-92
2021/06/05 01:16:02;;;;;;;;;2.00;2.00;;;;;20.15;48.51;98917.72;4870075;28;104799;-92
2021/06/05 01:18:47;;;;;;;;;2.00;1.00;;;;;20.14;48.48;98921.53;4861783;28;102257;-92
2021/06/05 01:21:33;;;;;;;;;2.67;2.33;;;;;20.13;48.64;98917.13;4790652;28;109200;-93
2021/06/05 01:24:13;;;;;;;;;2.00;2.00;;;;;20.14;48.82;98918.78;4853555;28;104554;-92
2021/06/05 01:26:49;;;;;;;;;1.67;1.67;;;;;20.13;48.72;98911.63;4884790;28;102525;-92
2021/06/05 01:29:34;;;;;;;;;2.00;2.00;;;;;20.15;48.21;98914.97;4877291;28;102597;-93
2021/06/05 01:32:11;;;;;;;;;3.33;2.00;;;;;20.14;48.77;98907.81;4894682;28;107759;-93
2021/06/05 01:34:54;;;;;;;;;1.67;1.67;;;;;20.13;48.64;98902.59;4889312;28;108359;-93
2021/06/05 01:37:31;;;;;;;;;2.00;1.67;;;;;20.13;48.20;98899.84;4837154;28;104194;-92
2021/06/05 01:40:06;;;;;;;;;2.00;2.00;;;;;20.13;48.49;98891.59;4871924;28;108060;-93
2021/06/05 01:42:45;;;;;;;;;2.00;2.00;;;;;20.12;48.35;98889.94;4894982;28;107932;-92
2021/06/05 01:45:27;;;;;;;;;1.00;1.00;;;;;20.12;48.72;98893.53;4832984;28;102191;-93
2021/06/05 01:48:01;;;;;;;;;2.67;2.00;;;;;20.12;48.67;98896.28;4900717;28;102197;-92
2021/06/05 01:50:38;;;;;;;;;1.67;1.67;;;;;20.12;48.82;98896.28;4886985;28;105495;-92
2021/06/05 01:53:27;;;;;;;;;3.00;2.33;;;;;20.13;48.76;98894.34;4909519;28;107787;-93
2021/06/05 01:56:02;;;;;;;;;3.00;2.00;;;;;20.09;48.62;98890.44;4832778;28;102541;-92
2021/06/05 01:58:38;;;;;;;;;2.00;2.00;;;;;20.12;48.98;98899.00;4908963;28;102022;-92
2021/06/05 02:01:11;;;;;;;;;2.00;1.00;;;;;20.11;48.85;98902.84;4884896;28;104241;-92
2021/06/05 02:03:49;;;;;;;;;3.00;2.00;;;;;20.10;48.32;98906.66;4899654;28;106224;-92
2021/06/05 02:06:24;;;;;;;;;3.67;3.00;;;;;20.11;48.53;98905.59;4897030;28;102425;-92
2021/06/05 02:09:01;;;;;;;;;3.00;2.00;;;;;20.10;48.72;98890.19;4879408;28;103856;-91
2021/06/05 02:11:42;;;;;;;;;1.00;1.00;;;;;20.10;48.83;98895.69;4881597;28;105099;-92
2021/06/05 02:14:24;;;;;;;;;2.00;1.67;;;;;20.11;48.65;98900.09;4886385;28;108570;-90
2021/06/05 02:16:59;;;;;;;;;2.33;2.00;;;;;20.10;48.84;98901.16;4885545;28;102710;-93
2021/06/05 02:19:35;;;;;;;;;2.00;2.00;;;;;20.10;48.59;98901.16;4893909;28;102287;-92
2021/06/05 02:22:12;;;;;;;;;1.67;1.67;;;;;20.09;48.87;98905.00;4887597;28;110966;-93
2021/06/05 02:24:50;;;;;;;;;2.00;2.00;;;;;20.10;48.76;98901.16;4880064;28;110718;-93
2021/06/05 02:27:27;;;;;;;;;2.00;2.00;;;;;20.10;48.74;98905.81;4896504;28;102200;-92
2021/06/05 02:30:01;;;;;;;;;2.67;2.00;;;;;20.10;48.53;98905.81;4908455;28;102248;-93
2021/06/05 02:32:38;;;;;;;;;2.00;2.00;;;;;20.10;48.88;98903.91;4904334;28;104949;-91
2021/06/05 02:35:22;;;;;;;;;2.67;2.67;;;;;19.95;48.79;98881.75;4894889;28;108163;-93
2021/06/05 02:37:51;;;;;;;;;2.00;2.00;;;;;20.09;49.08;98905.00;4814192;28;102341;-92
2021/06/05 02:40:29;;;;;;;;;4.00;2.00;;;;;20.08;48.55;98903.34;4882483;28;103049;-92
2021/06/05 02:43:10;;;;;;;;;2.00;2.00;;;;;20.08;48.52;98906.09;4904194;28;111089;-92
2021/06/05 02:46:01;;;;;;;;;1.00;1.00;;;;;20.09;48.72;98907.75;4911286;28;108457;-91
2021/06/05 02:48:55;;;;;;;;;2.67;2.00;;;;;20.09;48.94;98909.66;4846980;28;102991;-92
2021/06/05 02:51:43;;;;;;;;;2.33;2.33;;;;;20.08;48.65;98913.50;4856927;28;102879;-92
2021/06/05 02:54:14;;;;;;;;;2.00;2.00;;;;;20.08;48.46;98919.81;4916370;28;102215;-93
2021/06/05 02:56:51;;;;;;;;;2.00;2.00;;;;;20.08;48.74;98913.50;4891528;28;107898;-93
2021/06/05 02:59:25;;;;;;;;;2.00;2.00;;;;;20.08;48.62;98925.31;4915577;28;102415;-92
2021/06/05 03:02:01;;;;;;;;;2.00;2.00;;;;;20.08;48.69;98925.31;4922870;28;102131;-92
2021/06/05 03:04:33;;;;;;;;;3.00;2.00;;;;;20.07;48.62;98920.91;4895565;28;104757;-92
2021/06/05 03:07:07;;;;;;;;;2.00;2.00;;;;;20.07;48.81;98931.88;4912090;28;103086;-92
2021/06/05 03:09:36;;;;;;;;;2.00;1.00;;;;;20.06;48.63;98941.19;4915808;28;102430;-93
2021/06/05 03:12:06;;;;;;;;;2.00;2.00;;;;;20.08;48.94;98944.53;4921533;28;102578;-92
2021/06/05 03:14:33;;;;;;;;;2.00;1.67;;;;;20.06;48.82;98943.94;4906697;28;103769;-93
2021/06/05 03:17:00;;;;;;;;;2.00;1.67;;;;;20.06;48.90;98943.94;4917848;28;104071;-92
2021/06/05 03:19:27;;;;;;;;;2.00;2.00;;;;;20.06;48.60;98949.44;4911327;28;103310;-93
2021/06/05 03:21:55;;;;;;;;;2.00;2.00;;;;;20.07;48.86;98942.03;4904242;28;102472;-93
2021/06/05 03:24:22;;;;;;;;;4.33;3.00;;;;;20.05;48.67;98937.63;4913543;28;102502;-93
2021/06/05 03:26:49;;;;;;;;;2.00;2.00;;;;;20.05;48.92;98936.78;4916773;28;104462;-92
2021/06/05 03:29:16;;;;;;;;;2.00;2.00;;;;;20.06;48.97;98938.47;4913993;28;102183;-92
2021/06/05 03:31:43;;;;;;;;;2.00;2.00;;;;;20.05;48.65;98943.13;4917430;28;102447;-93
2021/06/05 03:34:11;;;;;;;;;1.67;1.67;;;;;20.05;48.92;98942.28;4920380;28;102208;-92
2021/06/05 03:36:38;;;;;;;;;2.00;2.00;;;;;20.05;48.82;98945.03;4912759;28;104113;-92
2021/06/05 03:39:06;;;;;;;;;2.67;2.67;;;;;20.06;48.78;98943.94;4915150;28;102245;-93
2021/06/05 03:41:34;;;;;;;;;2.00;1.00;;;;;20.05;48.67;98942.28;4898044;28;102132;-92
2021/06/05 03:44:01;;;;;;;;;2.33;2.00;;;;;20.03;48.67;98938.97;4890841;28;102621;-92
2021/06/05 03:46:29;;;;;;;;;2.00;2.00;;;;;20.05;48.89;98939.53;4884085;28;102794;-92
2021/06/05 03:48:56;;;;;;;;;1.67;1.67;;;;;20.04;48.61;98935.97;4893065;28;104671;-92
2021/06/05 03:51:23;;;;;;;;;3.00;3.00;;;;;20.04;48.98;98930.47;4897151;28;102584;-93
2021/06/05 03:53:55;;;;;;;;;2.00;2.00;;;;;20.04;48.91;98935.13;4904085;28;102186;-93
2021/06/05 03:56:22;;;;;;;;;2.00;2.00;;;;;20.05;48.81;98931.28;4894552;28;103319;-92
2021/06/05 03:58:51;;;;;;;;;1.00;1.00;;;;;20.05;48.96;98940.38;4890123;28;102567;-93
2021/06/05 04:01:22;;;;;;;;;2.00;2.00;;;;;20.04;48.96;98940.63;4908385;28;104303;-92
2021/06/05 04:03:49;;;;;;;;;2.00;2.00;;;;;20.02;48.91;98929.06;4886682;28;102381;-93
2021/06/05 04:06:19;;;;;;;;;3.00;2.00;;;;;20.04;48.76;98935.97;4919503;28;104604;-92
2021/06/05 04:08:46;;;;;;;;;2.00;1.67;;;;;20.03;48.62;98933.47;4892067;28;102228;-91
2021/06/05 04:11:13;;;;;;;;;2.33;2.33;;;;;20.03;48.67;98944.47;4913324;28;102213;-94
2021/06/05 04:13:40;;;;;;;;;2.00;2.00;;;;;20.02;48.68;98951.88;4904094;28;102295;-92
2021/06/05 04:16:08;;;;;;;;;1.33;1.33;;;;;20.03;49.03;98949.97;4909874;28;104579;-92
2021/06/05 04:18:37;;;;;;;;;2.00;2.00;;;;;20.02;48.83;98935.41;4901564;28;102125;-92
2021/06/05 04:21:05;;;;;;;;;3.33;2.00;;;;;20.02;49.02;98943.63;4874246;28;102259;-91
2021/06/05 04:23:32;;;;;;;;;3.00;2.00;;;;;20.02;48.57;98942.78;4906141;28;102392;-92
2021/06/05 04:26:00;;;;;;;;;1.33;1.33;;;;;20.02;48.69;98937.31;4901734;28;105043;-92
2021/06/05 04:28:28;;;;;;;;;0.00;0.00;;;;;20.02;48.72;98937.31;4888401;28;102374;-92
2021/06/05 04:30:55;;;;;;;;;2.33;2.33;;;;;20.02;48.75;98923.59;4903145;28;102560;-92
2021/06/05 04:33:24;;;;;;;;;1.00;1.00;;;;;20.02;48.76;98931.81;4907890;28;102505;-91
2021/06/05 04:35:51;;;;;;;;;2.67;2.33;;;;;20.01;48.66;98930.16;4914738;28;103979;-93
2021/06/05 04:38:19;;;;;;;;;1.67;1.67;;;;;20.01;48.79;98928.25;4913664;28;102192;-91
2021/06/05 04:40:47;;;;;;;;;2.00;2.00;;;;;20.00;48.76;98925.72;4900269;28;102159;-91
2021/06/05 04:43:17;;;;;;;;;4.00;2.33;;;;;20.02;48.94;98932.66;4896734;28;102189;-92
2021/06/05 04:45:44;;;;;;;;;2.00;2.00;;;;;20.02;48.63;98926.31;4905878;28;109895;-92
2021/06/05 04:48:12;;;;;;;;;1.67;1.67;;;;;20.01;49.10;98933.72;4874450;28;102132;-92
2021/06/05 04:50:40;;;;;;;;;2.00;2.00;;;;;19.93;48.84;98916.88;4891010;28;102437;-92
2021/06/05 04:53:07;;;;;;;;;2.00;2.00;;;;;20.00;48.77;98917.50;4898624;28;102258;-92
2021/06/05 04:55:35;;;;;;;;;1.00;1.00;;;;;20.01;48.98;98925.50;4915880;28;104260;-92
2021/06/05 04:58:02;;;;;;;;;3.00;3.00;;;;;20.02;48.76;98934.56;4910166;28;102159;-92
2021/06/05 05:00:35;;;;;;;;;1.00;1.00;;;;;20.01;48.65;98943.88;4911970;28;102060;-92
2021/06/05 05:03:04;;;;;;;;;1.33;1.33;;;;;20.02;48.98;98959.28;4888879;28;102626;-92
2021/06/05 05:05:31;;;;;;;;;1.33;1.33;;;;;20.00;48.96;98954.03;4916937;28;104122;-93
2021/06/05 05:07:58;;;;;;;;;1.33;1.33;;;;;20.01;48.95;98961.19;4914761;28;102341;-92
2021/06/05 05:10:30;;;;;;;;;2.00;2.00;;;;;20.01;48.99;98941.13;4897446;28;102612;-92
2021/06/05 05:12:58;;;;;;;;;1.33;1.33;;;;;20.00;48.69;98928.47;4893138;28;102464;-93
2021/06/05 05:15:26;;;;;;;;;2.00;2.00;;;;;20.00;48.97;98932.06;4892999;28;104078;-91
2021/06/05 05:17:53;;;;;;;;;2.00;2.00;;;;;20.00;48.82;98926.56;4903094;28;102130;-92
2021/06/05 05:20:24;;;;;;;;;2.00;2.00;;;;;19.99;48.74;98927.66;4893179;28;102453;-92
2021/06/05 05:22:51;;;;;;;;;2.00;2.00;;;;;19.99;48.89;98933.13;4912322;28;102262;-91
2021/06/05 05:25:18;;;;;;;;;3.00;3.00;;;;;19.97;48.99;98924.34;4889418;28;104703;-92
2021/06/05 05:27:45;;;;;;;;;2.00;2.00;;;;;19.99;48.87;98927.66;4904126;28;104643;-91
2021/06/05 05:30:24;;;;;;;;;3.00;2.00;;;;;19.99;49.02;98929.59;4919125;28;102219;-92
2021/06/05 05:32:51;;;;;;;;;2.00;2.00;;;;;20.00;49.03;98947.69;4830151;28;103603;-93
2021/06/05 05:35:19;;;;;;;;;3.67;2.00;;;;;20.00;48.93;98944.94;4887573;28;104252;-92
2021/06/05 05:37:46;;;;;;;;;2.00;2.00;;;;;19.99;48.83;98938.63;4913032;28;102591;-90
2021/06/05 05:40:13;;;;;;;;;2.33;2.33;;;;;20.00;48.69;98932.06;4901509;28;102477;-93
2021/06/05 05:42:41;;;;;;;;;2.00;2.00;;;;;19.98;48.61;98925.19;4908541;28;102217;-92
2021/06/05 05:45:09;;;;;;;;;2.00;2.00;;;;;19.99;48.77;98933.13;4909960;28;104387;-93
2021/06/05 05:47:36;;;;;;;;;1.67;1.33;;;;;19.99;49.02;98935.09;4880285;28;103132;-93
2021/06/05 05:50:05;;;;;;;;;2.00;2.00;;;;;19.98;48.75;98933.41;4896283;28;102151;-92
2021/06/05 05:52:32;;;;;;;;;1.00;1.00;;;;;19.99;49.01;98932.34;4901903;28;102494;-93
2021/06/05 05:55:00;;;;;;;;;1.33;1.33;;;;;19.96;49.01;98933.66;4903622;28;104197;-91
2021/06/05 05:57:27;;;;;;;;;2.00;2.00;;;;;19.98;48.79;98938.91;4893994;28;102251;-92
2021/06/05 05:59:54;;;;;;;;;1.67;1.67;;;;;19.97;48.86;98939.97;4912212;28;101987;-92
2021/06/05 06:02:21;;;;;;;;;3.00;3.00;;;;;19.97;48.70;98939.97;4911813;28;102681;-92
2021/06/05 06:04:48;;;;;;;;;1.67;1.67;;;;;19.98;48.75;98936.16;4871620;28;104261;-92
2021/06/05 06:07:16;;;;;;;;;1.67;1.00;;;;;19.97;49.13;98942.72;4912158;28;102132;-92
2021/06/05 06:09:43;;;;;;;;;2.00;2.00;;;;;19.97;48.89;98945.47;4906856;28;102162;-91
2021/06/05 06:12:10;;;;;;;;;2.33;2.00;;;;;19.94;48.90;98926.78;4883883;28;102497;-92
2021/06/05 06:14:38;;;;;;;;;1.00;1.00;;;;;19.97;48.92;98918.84;4896675;28;104249;-92
2021/06/05 06:17:05;;;;;;;;;2.00;2.00;;;;;19.96;48.87;98905.38;4893600;28;102404;-92
2021/06/05 06:19:32;;;;;;;;;1.00;1.00;;;;;19.96;48.92;98906.22;4904505;28;102644;-92
2021/06/05 06:21:59;;;;;;;;;2.00;2.00;;;;;19.97;48.88;98904.28;4916807;28;102233;-92
2021/06/05 06:24:26;;;;;;;;;1.00;1.00;;;;;19.97;49.12;98907.03;4905922;28;103813;-92
2021/06/05 06:26:54;;;;;;;;;2.00;2.00;;;;;19.96;48.67;98899.88;4897887;28;102155;-92
2021/06/05 06:29:28;;;;;;;;;1.00;1.00;;;;;19.97;48.74;98904.28;4891222;28;105172;-93
2021/06/05 06:31:55;;;;;;;;;2.00;2.00;;;;;19.98;49.04;98903.22;4894400;28;102207;-92
2021/06/05 06:34:23;;;;;;;;;1.33;1.00;;;;;19.98;48.97;98906.78;4888978;28;104120;-92
2021/06/05 06:36:50;;;;;;;;;1.67;1.00;;;;;19.99;49.07;98915.88;4872842;28;101944;-92
2021/06/05 06:39:17;;;;;;;;;2.00;2.00;;;;;20.00;49.10;98917.50;4905950;28;102188;-92
2021/06/05 06:41:44;;;;;;;;;1.00;1.00;;;;;19.99;49.07;98910.38;4897187;28;102568;-91
2021/06/05 06:44:12;;;;;;;;;0.67;0.67;;;;;20.00;49.07;98917.50;4913797;28;112823;-92
2021/06/05 06:46:42;;;;;;;;;0.33;0.33;;;;;20.00;49.12;98912.00;4922260;28;103837;-93
2021/06/05 06:49:09;;;;;;;;;2.00;1.00;;;;;20.00;49.19;98917.50;4897474;28;102389;-92
2021/06/05 06:51:37;;;;;;;;;1.67;1.67;;;;;20.00;49.10;98912.84;4918316;28;102136;-93
2021/06/05 06:54:05;;;;;;;;;2.00;2.00;;;;;20.00;49.10;98912.00;4894366;28;104483;-92
2021/06/05 06:56:33;;;;;;;;;1.00;1.00;;;;;20.01;48.92;98908.19;4877145;28;103151;-92
2021/06/05 06:59:00;;;;;;;;;2.00;2.00;;;;;20.00;49.01;98901.88;4893547;28;102207;-92
2021/06/05 07:01:28;;;;;;;;;2.00;2.00;;;;;20.00;49.12;98901.03;4907757;28;102391;-93
2021/06/05 07:03:55;;;;;;;;;1.67;1.67;;;;;20.00;48.72;98892.78;4903631;28;105474;-93
2021/06/05 07:06:22;;;;;;;;;1.33;1.33;;;;;19.99;49.07;98888.41;4915711;28;103764;-92
2021/06/05 07:08:49;;;;;;;;;1.00;1.00;;;;;20.01;49.08;98891.72;4913234;28;101990;-92
2021/06/05 07:11:19;;;;;;;;;1.00;1.00;;;;;20.01;48.83;98888.97;4916404;28;102057;-92
2021/06/05 07:13:46;;;;;;;;;1.00;1.00;;;;;20.01;49.08;98892.56;4908774;28;109066;-93
2021/06/05 07:16:13;;;;;;;;;2.00;2.00;;;;;20.02;48.79;98893.38;4901603;28;102149;-93
2021/06/05 07:18:40;;;;;;;;;1.67;1.67;;;;;20.01;49.08;98894.47;4891018;28;104468;-94
2021/06/05 07:21:08;;;;;;;;;1.00;1.00;;;;;20.02;48.88;98888.72;4872110;28;102675;-93
2021/06/05 07:23:36;;;;;;;;;1.00;1.00;;;;;20.02;48.91;98887.91;4900748;28;104093;-93
2021/06/05 07:26:05;;;;;;;;;1.67;1.67;;;;;20.03;49.00;98892.31;4911775;28;102555;-92
2021/06/05 07:28:39;;;;;;;;;1.67;1.00;;;;;20.02;49.08;98885.97;4912280;28;102412;-93
2021/06/05 07:31:07;;;;;;;;;2.00;2.00;;;;;20.03;48.90;98886.81;4910545;28;102119;-94
2021/06/05 07:33:34;;;;;;;;;0.00;0.00;;;;;20.04;48.71;98891.19;4896276;28;104216;-92
2021/06/05 07:36:02;;;;;;;;;1.00;1.00;;;;;20.01;48.91;98875.25;4890356;28;101944;-93
2021/06/05 07:38:29;;;;;;;;;1.00;1.00;;;;;20.05;48.64;98881.88;4913254;28;102277;-92
2021/06/05 07:40:57;;;;;;;;;2.00;2.00;;;;;20.05;49.11;98877.22;4915292;28;102140;-93
2021/06/05 07:43:26;;;;;;;;;2.00;2.00;;;;;20.07;48.77;98879.72;4896872;28;104163;-93
2021/06/05 07:45:54;;;;;;;;;2.00;2.00;;;;;20.07;48.82;98868.75;4882319;28;102198;-93
2021/06/05 07:48:23;;;;;;;;;1.00;1.00;;;;;20.06;48.81;98853.34;4921515;28;102550;-92
2021/06/05 07:50:50;;;;;;;;;2.00;1.33;;;;;20.07;49.13;98857.75;4890681;28;102526;-90
2021/06/05 07:53:17;;;;;;;;;1.33;1.33;;;;;20.08;48.78;98851.19;4909884;28;104149;-94
2021/06/05 07:55:44;;;;;;;;;1.33;1.33;;;;;20.07;48.77;98844.03;4911340;28;102166;-93
2021/06/05 07:58:11;;;;;;;;;1.00;1.00;;;;;20.06;48.90;98839.63;4886098;28;102988;-94
2021/06/05 08:00:39;;;;;;;;;1.67;1.00;;;;;20.11;48.96;98858.06;4895483;28;104142;-93
2021/06/05 08:03:08;;;;;;;;;2.00;2.00;;;;;20.09;48.99;98850.09;4912068;28;104191;-93
2021/06/05 08:05:36;;;;;;;;;2.00;2.00;;;;;20.11;48.74;98853.41;4874715;28;102372;-92
2021/06/05 08:08:04;;;;;;;;;1.00;1.00;;;;;20.12;48.58;98849.59;4891137;28;102111;-93
2021/06/05 08:10:31;;;;;;;;;1.00;1.00;;;;;20.12;48.96;98844.09;4909056;28;102217;-93
2021/06/05 08:12:58;;;;;;;;;1.00;1.00;;;;;20.13;48.98;98843.00;4894283;28;103614;-93
2021/06/05 08:15:28;;;;;;;;;1.00;1.00;;;;;20.14;48.68;98843.81;4897871;28;102139;-93
2021/06/05 08:17:55;;;;;;;;;2.00;2.00;;;;;20.14;48.65;98847.41;4889479;28;103899;-94
2021/06/05 08:20:43;;;;;;;;;2.00;2.00;;;;;20.17;49.05;98837.84;4917523;28;102162;-93
2021/06/05 08:23:11;;;;;;;;;1.00;1.00;;;;;20.16;48.88;98838.91;4890824;28;103138;-92
2021/06/05 08:25:38;;;;;;;;;1.33;1.00;;;;;20.17;48.78;98838.66;4897072;28;103455;-93
2021/06/05 08:28:07;;;;;;;;;0.67;0.67;;;;;20.18;48.94;98834.81;4918969;28;105230;-92
2021/06/05 08:30:43;;;;;;;;;1.33;1.00;;;;;20.19;48.54;98833.75;4909506;28;103270;-93
2021/06/05 08:33:11;;;;;;;;;1.67;1.67;;;;;20.20;48.49;98837.31;4879000;28;104076;-93
2021/06/05 08:35:39;;;;;;;;;1.00;1.00;;;;;20.22;48.56;98837.91;4902238;28;103745;-92
2021/06/05 08:38:06;;;;;;;;;1.00;1.00;;;;;20.21;48.57;98834.31;4905369;28;104031;-94
2021/06/05 08:41:02;;;;;;;;;2.00;2.00;;;;;20.24;48.55;98835.72;4912871;28;102161;-92
2021/06/05 08:43:36;;;;;;;;;2.00;1.33;;;;;20.23;48.92;98843.13;4877202;28;104252;-93
2021/06/05 08:46:05;;;;;;;;;2.00;1.00;;;;;20.25;48.68;98843.69;4883628;28;102450;-92
2021/06/05 08:48:32;;;;;;;;;3.00;1.00;;;;;20.24;49.02;98836.53;4906805;28;102308;-92
2021/06/05 08:51:46;;;;;;;;;1.00;1.00;;;;;20.26;48.51;98845.34;4913123;28;102453;-93
2021/06/05 08:54:21;;;;;;;;;1.00;1.00;;;;;20.27;48.81;98846.16;4831247;28;108989;-93
2021/06/05 08:56:48;;;;;;;;;1.00;1.00;;;;;20.25;48.94;98835.47;4885646;28;102468;-93
2021/06/05 08:59:16;;;;;;;;;2.00;1.00;;;;;20.26;48.39;98837.09;4882718;28;103422;-93
2021/06/05 09:01:44;;;;;;;;;1.00;1.00;;;;;20.26;48.46;98833.56;4887408;28;102863;-93
2021/06/05 09:04:17;;;;;;;;;2.00;2.00;;;;;20.27;48.65;98830.53;4877292;28;104221;-94
2021/06/05 09:06:57;;;;;;;;;1.67;1.67;;;;;20.27;48.69;98829.69;4905675;28;102657;-93
2021/06/05 09:09:30;;;;;;;;;1.00;1.00;;;;;20.28;48.58;98829.44;4871675;28;103878;-92
2021/06/05 09:11:58;;;;;;;;;1.00;1.00;;;;;20.29;48.52;98833.03;4916702;28;102224;-93
2021/06/05 09:14:25;;;;;;;;;1.33;1.00;;;;;20.28;48.80;98829.44;4890544;28;104359;-93
2021/06/05 09:16:53;;;;;;;;;2.00;2.00;;;;;20.30;48.42;98826.47;4889666;28;102379;-92
2021/06/05 09:19:33;;;;;;;;;2.00;2.00;;;;;20.28;48.43;98818.47;4893497;28;102197;-93
2021/06/05 09:22:07;;;;;;;;;1.00;1.00;;;;;20.31;48.51;98822.63;4842175;28;102594;-93
2021/06/05 09:24:41;;;;;;;;;2.67;1.67;;;;;20.30;48.76;98813.59;4912409;28;104359;-93
2021/06/05 09:27:12;;;;;;;;;1.00;1.00;;;;;20.31;48.80;98815.22;4898936;28;102869;-92
2021/06/05 09:30:04;;;;;;;;;1.00;1.00;;;;;20.34;48.63;98802.91;4907476;28;102630;-94
2021/06/05 09:32:55;;;;;;;;;1.00;1.00;;;;;20.34;48.34;98795.50;4854518;28;105502;-93
2021/06/05 09:35:31;;;;;;;;;1.33;1.33;;;;;20.36;48.74;98811.69;4876023;28;107566;-92
2021/06/05 09:38:34;;;;;;;;;1.00;1.00;;;;;20.38;48.32;98810.38;4899496;28;102087;-93
2021/06/05 09:41:08;;;;;;;;;1.00;1.00;;;;;20.39;48.55;98801.03;4854765;28;102341;-94
2021/06/05 09:43:36;;;;;;;;;0.33;0.33;;;;;20.40;48.68;98801.84;4898916;28;102393;-93
2021/06/05 09:46:23;;;;;;;;;1.00;1.00;;;;;20.40;48.45;98797.19;4884246;28;103058;-93
2021/06/05 09:48:52;;;;;;;;;1.67;1.00;;;;;20.42;48.58;98795.03;4919025;28;102087;-93
2021/06/05 09:51:26;;;;;;;;;2.00;2.00;;;;;20.43;48.23;98791.19;4897210;28;102333;-92
2021/06/05 09:54:15;;;;;;;;;2.00;2.00;;;;;20.44;48.21;98786.53;4914405;28;107272;-92
2021/06/05 09:56:44;;;;;;;;;1.67;1.67;;;;;20.45;48.23;98790.91;4920247;28;103589;-93
2021/06/05 09:59:24;;;;;;;;;1.00;1.00;;;;;20.47;48.13;98789.59;4886983;28;102289;-92
2021/06/05 10:02:20;;;;;;;;;1.67;1.67;;;;;20.48;48.10;98783.00;4913405;28;102294;-92
2021/06/05 10:05:15;;;;;;;;;1.00;1.00;;;;;20.38;48.30;98771.09;4855823;28;102769;-92
2021/06/05 10:07:42;;;;;;;;;2.00;1.00;;;;;20.49;48.35;98781.88;4853932;28;109969;-92
2021/06/05 10:10:33;;;;;;;;;1.00;1.00;;;;;20.51;48.44;98776.16;4905540;28;102647;-92
2021/06/05 10:13:03;;;;;;;;;1.00;1.00;;;;;20.47;48.38;98775.84;4859248;28;104732;-92
2021/06/05 10:15:54;;;;;;;;;1.00;1.00;;;;;20.46;48.20;98773.34;4913046;28;102716;-93
2021/06/05 10:18:37;;;;;;;;;0.33;0.33;;;;;20.52;48.58;98771.47;4893275;28;107622;-93
2021/06/05 10:21:09;;;;;;;;;1.33;1.00;;;;;20.53;48.58;98778.66;4819687;28;102920;-93
2021/06/05 10:23:41;;;;;;;;;1.33;1.00;;;;;20.53;48.49;98775.91;4873189;28;102075;-92
2021/06/05 10:26:35;;;;;;;;;1.00;1.00;;;;;20.56;48.36;98775.38;4862627;28;102165;-93
2021/06/05 10:29:17;;;;;;;;;1.67;1.67;;;;;20.56;48.05;98773.44;4821382;28;109433;-92
2021/06/05 10:31:44;;;;;;;;;1.00;1.00;;;;;20.57;48.42;98763.28;4892144;28;102316;-92
2021/06/05 10:34:14;;;;;;;;;1.00;1.00;;;;;20.57;48.53;98761.38;4883999;28;102267;-92
2021/06/05 10:36:45;;;;;;;;;1.00;1.00;;;;;20.57;47.95;98744.06;4877342;28;103784;-92
2021/06/05 10:39:16;;;;;;;;;0.67;0.67;;;;;20.59;48.04;98742.69;4879933;28;106013;-93
2021/06/05 10:41:49;;;;;;;;;1.00;1.00;;;;;20.60;48.12;98740.78;4899353;28;102246;-92
2021/06/05 10:44:16;;;;;;;;;2.00;2.00;;;;;20.62;48.00;98741.34;4875410;28;103754;-92
2021/06/05 10:47:02;;;;;;;;;0.33;0.33;;;;;20.64;48.12;98744.66;4895755;28;102170;-92
2021/06/05 10:49:39;;;;;;;;;1.00;1.00;;;;;20.65;48.00;98740.81;4801145;28;107727;-93
2021/06/05 10:52:29;;;;;;;;;2.00;1.00;;;;;20.67;48.35;98735.91;4897352;28;102383;-92
2021/06/05 10:55:17;;;;;;;;;1.00;1.00;;;;;20.64;47.91;98717.19;4874926;28;102728;-93
2021/06/05 10:57:49;;;;;;;;;1.00;1.00;;;;;20.68;48.22;98721.06;4902912;28;102251;-92
2021/06/05 11:00:22;;;;;;;;;1.33;1.00;;;;;20.69;47.82;98722.72;4866791;28;103827;-92
2021/06/05 11:02:53;;;;;;;;;1.00;1.00;;;;;20.71;48.21;98731.53;4891875;28;102065;-93
2021/06/05 11:05:27;;;;;;;;;1.00;1.00;;;;;20.71;47.98;98726.03;4890827;28;102504;-91
2021/06/05 11:08:10;;;;;;;;;1.00;1.00;;;;;20.72;48.05;98727.69;4898154;28;102116;-92
2021/06/05 11:10:47;;;;;;;;;0.00;0.00;;;;;20.73;47.88;98729.34;4895833;28;104342;-92
2021/06/05 11:13:50;;;;;;;;;0.00;0.00;;;;;20.75;47.82;98727.16;4882262;28;102538;-92
2021/06/05 11:16:18;;;;;;;;;1.00;1.00;;;;;20.75;48.16;98718.91;4731749;29;105741;-93
2021/06/05 11:19:08;;;;;;;;;0.00;0.00;;;;;20.75;47.86;98719.75;4893384;28;102474;-92
2021/06/05 11:21:41;;;;;;;;;0.00;0.00;;;;;20.77;48.29;98722.22;4856644;28;109336;-92
2021/06/05 11:24:19;;;;;;;;;2.67;2.00;;;;;20.76;48.20;98724.13;4914931;28;102473;-92
2021/06/05 11:26:53;;;;;;;;;0.00;0.00;;;;;20.77;48.04;98727.72;4906216;28;102336;-94
2021/06/05 11:29:21;;;;;;;;;2.00;1.00;;;;;20.76;48.02;98723.31;4916374;28;102507;-93
2021/06/05 11:31:53;;;;;;;;;1.00;1.00;;;;;20.76;48.02;98723.31;4916546;28;109554;-92
2021/06/05 11:34:50;;;;;;;;;1.00;0.67;;;;;20.79;47.83;98717.31;4901771;28;102029;-92
2021/06/05 11:37:17;;;;;;;;;2.00;1.00;;;;;20.79;48.02;98711.81;4855147;28;105316;-92
2021/06/05 11:39:57;;;;;;;;;0.67;0.67;;;;;20.81;47.79;98704.94;4917738;28;102738;-92
2021/06/05 11:42:24;;;;;;;;;1.00;1.00;;;;;20.79;48.17;98704.38;4894845;28;108841;-90
2021/06/05 11:45:00;;;;;;;;;1.00;1.00;;;;;20.83;47.66;98701.94;4895063;28;102172;-91
2021/06/05 11:47:27;;;;;;;;;1.00;0.33;;;;;20.84;48.21;98698.09;4916511;28;102256;-93
2021/06/05 11:50:02;;;;;;;;;1.00;1.00;;;;;20.85;47.89;98696.97;4912663;28;101638;-91